Time;durP1;ratioP1;P1;durP2;ratioP2;P2;SDS_P1;SDS_P2;PMS_P1;PMS_P2;Temp;Humidity;BMP_temperature;BMP_pressure;BME280_temperature;BME280_humidity;BME280_pressure;Samples;Min_cycle;Max_cycle;Signal;HPM_P1;HPM_P2
2023/06/26 00:01:11;;;;;;;23.27;15.27;;;;;;;;;;2531726;23;20033;-68
2023/06/26 00:02:32;;;;;;;27.13;16.17;;;;;;;;;;2518138;23;20006;-68
2023/06/26 00:03:53;;;;;;;20.60;14.13;;;;;;;;;;2527697;23;20059;-69
2023/06/26 00:05:14;;;;;;;22.17;14.52;;;;;;;;;;2530326;23;20343;-68
2023/06/26 00:06:35;;;;;;;27.25;15.50;;;;;;;;;;2528417;23;20006;-69
2023/06/26 00:08:00;;;;;;;22.60;15.05;;;;;;;;;;2530031;23;20010;-69
2023/06/26 00:09:21;;;;;;;21.83;14.88;;;;;;;;;;2530937;23;20006;-68
2023/06/26 00:10:41;;;;;;;22.92;15.38;;;;;;;;;;2530069;23;20081;-68
2023/06/26 00:12:02;;;;;;;22.50;14.40;;;;;;;;;;2529090;23;20818;-68
2023/06/26 00:13:24;;;;;;;22.10;13.65;;;;;;;;;;2530798;23;20021;-68
2023/06/26 00:14:45;;;;;;;21.20;14.18;;;;;;;;;;2529583;23;20014;-68
2023/06/26 00:16:05;;;;;;;21.55;14.43;;;;;;;;;;2519514;23;20026;-69
2023/06/26 00:17:26;;;;;;;18.02;13.18;;;;;;;;;;2525814;23;20009;-69
2023/06/26 00:18:47;;;;;;;20.67;13.48;;;;;;;;;;2518835;23;20480;-68
2023/06/26 00:20:09;;;;;;;19.15;12.02;;;;;;;;;;2514061;23;20062;-69
2023/06/26 00:21:29;;;;;;;20.52;12.48;;;;;;;;;;2526237;23;20332;-68
2023/06/26 00:22:50;;;;;;;19.40;12.40;;;;;;;;;;2529942;23;20088;-69
2023/06/26 00:24:12;;;;;;;19.88;12.20;;;;;;;;;;2531320;23;20018;-69
2023/06/26 00:25:33;;;;;;;18.30;11.40;;;;;;;;;;2520100;23;20010;-69
2023/06/26 00:26:54;;;;;;;20.92;12.43;;;;;;;;;;2512970;23;20038;-69
2023/06/26 00:28:15;;;;;;;18.80;11.75;;;;;;;;;;2514304;23;20020;-68
2023/06/26 00:29:36;;;;;;;15.93;10.02;;;;;;;;;;2517009;23;20015;-68
2023/06/26 00:30:57;;;;;;;15.88;11.02;;;;;;;;;;2520061;23;20014;-69
2023/06/26 00:32:18;;;;;;;17.40;11.35;;;;;;;;;;2526410;23;20006;-69
2023/06/26 00:33:38;;;;;;;16.83;11.60;;;;;;;;;;2519540;23;20018;-68
2023/06/26 00:34:59;;;;;;;15.50;9.57;;;;;;;;;;2516573;23;20153;-69
2023/06/26 00:36:22;;;;;;;13.02;9.82;;;;;;;;;;2526636;23;20414;-69
2023/06/26 00:37:43;;;;;;;22.95;11.88;;;;;;;;;;2529216;23;20010;-68
2023/06/26 00:39:05;;;;;;;19.15;11.85;;;;;;;;;;2527788;23;20018;-68
2023/06/26 00:40:27;;;;;;;17.35;11.63;;;;;;;;;;2531035;23;20010;-69
2023/06/26 00:41:48;;;;;;;;;;;;;;;;;;2532410;23;20017;-68
2023/06/26 00:43:09;;;;;;;19.88;11.73;;;;;;;;;;2518277;23;20240;-68
2023/06/26 00:44:30;;;;;;;14.73;10.10;;;;;;;;;;2526403;23;20010;-69
2023/06/26 00:45:51;;;;;;;16.02;11.30;;;;;;;;;;2531663;23;20337;-69
2023/06/26 00:47:14;;;;;;;14.43;9.93;;;;;;;;;;2520945;23;20424;-68
2023/06/26 00:48:35;;;;;;;14.68;10.30;;;;;;;;;;2513748;23;20123;-68
2023/06/26 00:49:56;;;;;;;13.75;10.43;;;;;;;;;;2527826;23;20024;-68
2023/06/26 00:51:17;;;;;;;15.90;10.95;;;;;;;;;;2518435;23;20014;-68
2023/06/26 00:52:37;;;;;;;17.83;11.10;;;;;;;;;;2513585;23;20014;-68
2023/06/26 00:53:59;;;;;;;19.17;12.13;;;;;;;;;;2512672;23;20015;-69
2023/06/26 00:55:19;;;;;;;16.85;10.85;;;;;;;;;;2527145;23;20057;-69
2023/06/26 00:56:41;;;;;;;13.38;10.38;;;;;;;;;;2531377;23;20077;-68
2023/06/26 00:58:01;;;;;;;19.85;12.18;;;;;;;;;;2532541;23;20340;-69
2023/06/26 00:59:22;;;;;;;19.27;10.98;;;;;;;;;;2530043;23;20014;-69
2023/06/26 01:00:45;;;;;;;16.95;10.75;;;;;;;;;;2529561;23;20110;-73
2023/06/26 01:02:07;;;;;;;20.50;11.55;;;;;;;;;;2531959;23;20013;-73
2023/06/26 04:08:24;;;;;;;;;;;;;;;;;;;;;
2023/06/26 04:30:13;;;;;;;;;;;;;;;;;;;;;
2023/06/26 04:44:15;;;;;;;19.52;7.22;;;;;;;;;;2388171;24;20446;-84
2023/06/26 04:48:27;;;;;;;15.73;6.28;;;;;;;;;;2399140;24;20446;-84
2023/06/26 04:51:53;;;;;;;15.15;7.07;;;;;;;;;;2418155;24;20029;-83
2023/06/26 04:53:48;;;;;;;20.85;7.25;;;;;;;;;;2415537;24;20025;-81
2023/06/26 04:55:30;;;;;;;21.55;8.20;;;;;;;;;;2461713;24;20023;-81
2023/06/26 04:57:14;;;;;;;20.00;6.75;;;;;;;;;;2474245;23;20012;-80
2023/06/26 04:58:41;;;;;;;24.02;8.90;;;;;;;;;;2473498;24;20055;-80
2023/06/26 05:00:14;;;;;;;21.80;7.55;;;;;;;;;;2484526;23;20018;-82
2023/06/26 05:04:30;;;;;;;;;;;;;;;;;;;;;
2023/06/26 05:07:41;;;;;;;17.40;7.53;;;;;;;;;;2462963;24;20013;-80
2023/06/26 05:09:30;;;;;;;21.42;7.40;;;;;;;;;;2467527;23;19996;-79
2023/06/26 05:13:19;;;;;;;19.02;7.43;;;;;;;;;;2449748;24;19997;-82
2023/06/26 05:17:38;;;;;;;19.15;7.63;;;;;;;;;;2460350;24;20017;-83
2023/06/26 05:20:58;;;;;;;58.45;15.05;;;;;;;;;;2435742;24;20053;-83
2023/06/26 05:23:11;;;;;;;;;;;;;;;;;;;;;
2023/06/26 05:28:59;;;;;;;15.98;5.85;;;;;;;;;;2475506;24;20012;-81
2023/06/26 05:30:59;;;;;;;21.92;6.70;;;;;;;;;;2463374;23;20087;-81
2023/06/26 05:37:23;;;;;;;;;;;;;;;;;;;;;
2023/06/26 05:38:56;;;;;;;;;;;;;;;;;;;;;
2023/06/26 05:40:27;;;;;;;18.67;5.93;;;;;;;;;;2453679;23;20091;-84
2023/06/26 05:42:20;;;;;;;20.65;6.18;;;;;;;;;;2427808;23;20025;-83
2023/06/26 05:44:48;;;;;;;16.88;5.90;;;;;;;;;;2451725;24;20397;-82
2023/06/26 05:46:33;;;;;;;20.00;5.85;;;;;;;;;;2461655;24;20427;-83
2023/06/26 05:48:35;;;;;;;25.08;8.30;;;;;;;;;;2451057;24;20013;-83
2023/06/26 05:52:52;;;;;;;;;;;;;;;;;;;;;
2023/06/26 05:57:02;;;;;;;28.63;9.02;;;;;;;;;;2413982;24;20060;-82
2023/06/26 05:58:52;;;;;;;29.17;8.07;;;;;;;;;;2437630;24;20010;-83
2023/06/26 06:00:40;;;;;;;23.33;6.40;;;;;;;;;;2460536;24;20012;-84
2023/06/26 06:04:17;;;;;;;21.33;5.45;;;;;;;;;;2532733;23;20069;-84
2023/06/26 06:05:53;;;;;;;16.40;5.80;;;;;;;;;;2495933;23;20026;-83
2023/06/26 06:07:25;;;;;;;16.67;5.38;;;;;;;;;;2517082;23;20403;-82
2023/06/26 06:08:48;;;;;;;24.50;6.68;;;;;;;;;;2521307;23;20010;-82
2023/06/26 06:10:38;;;;;;;;;;;;;;;;;;;;;
2023/06/26 06:12:43;;;;;;;14.50;5.55;;;;;;;;;;2526772;23;20033;-83
2023/06/26 06:14:15;;;;;;;17.85;6.15;;;;;;;;;;2518181;23;20042;-83
2023/06/26 06:16:00;;;;;;;23.50;6.55;;;;;;;;;;2517452;23;20163;-81
2023/06/26 06:17:30;;;;;;;20.50;5.78;;;;;;;;;;2531028;23;20010;-81
2023/06/26 06:19:02;;;;;;;23.98;6.68;;;;;;;;;;2531283;23;20009;-81
2023/06/26 06:20:29;;;;;;;;;;;;;;;;;;2519935;23;20011;-82
2023/06/26 06:22:21;;;;;;;24.77;8.35;;;;;;;;;;2515310;23;19917;-82
2023/06/26 06:24:07;;;;;;;;;;;;;;;;;;;;;
2023/06/26 06:25:34;;;;;;;18.73;5.82;;;;;;;;;;2532822;23;20347;-82
2023/06/26 06:26:56;;;;;;;21.95;8.13;;;;;;;;;;2516601;23;20453;-84
2023/06/26 06:28:50;;;;;;;12.07;4.75;;;;;;;;;;2516503;23;20011;-82
2023/06/26 06:30:53;;;;;;;;;;;;;;;;;;;;;
2023/06/26 06:32:52;;;;;;;19.00;5.18;;;;;;;;;;2528819;23;20014;-81
2023/06/26 06:34:18;;;;;;;17.38;5.82;;;;;;;;;;2520886;23;20006;-83
2023/06/26 06:37:42;;;;;;;26.98;7.70;;;;;;;;;;2511162;23;20014;-83
2023/06/26 06:41:16;;;;;;;12.80;4.43;;;;;;;;;;2529658;23;20009;-84
2023/06/26 06:43:13;;;;;;;;;;;;;;;;;;;;;
2023/06/26 07:15:21;;;;;;;31.17;11.77;;;;;;;;;;2524873;23;20029;-77
2023/06/26 07:16:49;;;;;;;15.70;5.40;;;;;;;;;;2529404;23;20022;-78
2023/06/26 07:18:21;;;;;;;14.07;5.38;;;;;;;;;;2519072;23;20015;-78
2023/06/26 07:19:46;;;;;;;17.00;5.68;;;;;;;;;;2495315;23;20019;-80
2023/06/26 07:32:21;;;;;;;;;;;;;;;;;;;;;
2023/06/26 07:36:39;;;;;;;13.50;5.20;;;;;;;;;;2429582;24;20022;-81
2023/06/26 07:38:10;;;;;;;9.70;4.40;;;;;;;;;;2428309;24;20010;-76
2023/06/26 07:39:31;;;;;;;11.05;4.68;;;;;;;;;;2430951;24;20014;-79
2023/06/26 07:41:31;;;;;;;12.50;5.30;;;;;;;;;;2428860;24;20021;-79
2023/06/26 07:43:26;;;;;;;36.22;11.30;;;;;;;;;;2379098;24;20019;-79
2023/06/26 07:44:47;;;;;;;12.85;5.38;;;;;;;;;;2395025;24;20000;-75
2023/06/26 07:48:45;;;;;;;18.08;6.75;;;;;;;;;;2393694;24;20393;-80
2023/06/26 07:51:56;;;;;;;12.35;5.25;;;;;;;;;;2391891;24;20458;-79
2023/06/26 07:57:20;;;;;;;13.93;4.57;;;;;;;;;;2424977;24;20516;-81
2023/06/26 08:00:46;;;;;;;16.70;7.07;;;;;;;;;;2425666;24;20010;-78
2023/06/26 08:02:07;;;;;;;16.88;6.38;;;;;;;;;;2451640;24;20013;-79
2023/06/26 08:03:36;;;;;;;9.75;5.47;;;;;;;;;;2455835;24;20489;-77
2023/06/26 08:04:59;;;;;;;19.92;7.07;;;;;;;;;;2468142;24;20013;-79
2023/06/26 08:06:20;;;;;;;15.75;6.50;;;;;;;;;;2453525;23;20017;-78
2023/06/26 08:07:41;;;;;;;20.50;6.30;;;;;;;;;;2455230;24;20021;-77
2023/06/26 08:09:18;;;;;;;;;;;;;;;;;;;;;
2023/06/26 08:10:40;;;;;;;11.52;5.78;;;;;;;;;;2459206;24;20016;-78
2023/06/26 08:12:01;;;;;;;14.60;5.43;;;;;;;;;;2459733;24;20021;-77
2023/06/26 08:13:45;;;;;;;;;;;;;;;;;;;;;
2023/06/26 08:17:04;;;;;;;10.95;5.40;;;;;;;;;;2531350;23;20030;-79
2023/06/26 08:18:25;;;;;;;7.65;4.38;;;;;;;;;;2530848;23;20419;-78
2023/06/26 08:19:46;;;;;;;13.20;5.20;;;;;;;;;;2530771;23;20014;-79
2023/06/26 08:21:09;;;;;;;8.70;4.68;;;;;;;;;;2522878;23;20014;-79
2023/06/26 08:22:30;;;;;;;10.02;4.47;;;;;;;;;;2517497;23;20138;-79
2023/06/26 08:23:51;;;;;;;10.82;5.05;;;;;;;;;;2530152;23;20022;-81
2023/06/26 08:25:23;;;;;;;8.98;4.25;;;;;;;;;;2532357;23;20017;-79
2023/06/26 08:26:45;;;;;;;9.77;3.65;;;;;;;;;;2535534;23;20009;-80
2023/06/26 08:28:06;;;;;;;;;;;;;;;;;;2534059;23;20352;-80
2023/06/26 08:29:28;;;;;;;11.70;4.30;;;;;;;;;;2533375;23;19900;-78
2023/06/26 08:32:48;;;;;;;10.35;4.15;;;;;;;;;;2532176;23;20005;-80
2023/06/26 08:34:09;;;;;;;9.75;4.53;;;;;;;;;;2516573;23;20069;-79
2023/06/26 08:35:30;;;;;;;9.65;3.70;;;;;;;;;;2527833;23;20014;-81
2023/06/26 08:36:50;;;;;;;6.95;3.67;;;;;;;;;;2533960;23;20010;-89
2023/06/26 08:38:11;;;;;;;11.88;4.57;;;;;;;;;;2520371;23;20066;-89
2023/06/26 08:41:59;;;;;;;11.73;3.97;;;;;;;;;;2483647;23;20019;-81
2023/06/26 08:43:23;;;;;;;38.60;11.63;;;;;;;;;;2475375;23;20020;-84
2023/06/26 08:58:57;;;;;;;6.90;3.58;;;;;;;;;;2484042;23;20449;-78
2023/06/26 09:00:38;;;;;;;8.02;3.30;;;;;;;;;;2486868;23;20023;-77
2023/06/26 09:02:16;;;;;;;10.82;3.67;;;;;;;;;;2485240;23;20008;-79
2023/06/26 09:04:08;;;;;;;40.17;13.00;;;;;;;;;;2459698;23;20015;-78
2023/06/26 09:09:31;;;;;;;6.15;3.13;;;;;;;;;;2507557;23;20006;-79
2023/06/26 09:16:50;;;;;;;6.55;3.35;;;;;;;;;;2526064;23;20347;-79
2023/06/26 09:18:12;;;;;;;5.45;3.03;;;;;;;;;;2546212;23;20010;-76
2023/06/26 09:20:15;;;;;;;;;;;;;;;;;;;;;
2023/06/26 09:21:53;;;;;;;;;;;;;;;;;;;;;
2023/06/26 09:23:20;;;;;;;7.35;3.20;;;;;;;;;;2544160;23;20009;-79
2023/06/26 09:24:42;;;;;;;13.05;4.97;;;;;;;;;;2541763;23;20355;-78
2023/06/26 09:26:06;;;;;;;6.55;3.20;;;;;;;;;;2546304;23;20018;-80
2023/06/26 09:39:40;;;;;;;13.43;4.65;;;;;;;;;;2543047;23;20009;-78
2023/06/26 09:41:02;;;;;;;9.15;3.80;;;;;;;;;;2533779;23;20427;-77
2023/06/26 09:46:59;;;;;;;11.57;3.92;;;;;;;;;;2545103;23;20001;-81
2023/06/26 09:48:20;;;;;;;5.32;3.83;;;;;;;;;;2534702;23;20424;-77
2023/06/26 09:56:15;;;;;;;13.40;5.25;;;;;;;;;;2464244;24;20016;-76
